createdAt,value
2023-02-16T00:01:57.976Z,-1.10
2023-02-16T00:04:28.415Z,-1.10
2023-02-16T00:06:56.418Z,-1.00
2023-02-16T00:09:24.274Z,-1.20
2023-02-16T00:12:11.378Z,-1.20
2023-02-16T00:14:39.608Z,-1.20
2023-02-16T00:17:06.972Z,-1.20
2023-02-16T00:19:41.941Z,-1.20
2023-02-16T00:22:11.023Z,-1.10
2023-02-16T00:24:37.733Z,-1.20
2023-02-16T00:27:13.382Z,-1.20
2023-02-16T00:29:40.087Z,-1.30
2023-02-16T00:32:12.108Z,-1.30
2023-02-16T00:34:41.266Z,-1.30
2023-02-16T00:37:10.952Z,-1.30
2023-02-16T00:39:39.060Z,-1.20
2023-02-16T00:42:12.483Z,-1.20
2023-02-16T00:44:44.695Z,-1.20
2023-02-16T00:47:19.864Z,-1.20
2023-02-16T00:49:48.416Z,-1.20
2023-02-16T00:52:39.294Z,-1.30
2023-02-16T00:55:09.111Z,-1.30
2023-02-16T00:57:58.051Z,-1.30
2023-02-16T01:00:33.940Z,-1.40
2023-02-16T01:03:03.986Z,-1.40
2023-02-16T01:05:31.015Z,-1.50
2023-02-16T01:08:18.036Z,-1.50
2023-02-16T01:11:04.169Z,-1.60
2023-02-16T01:13:32.717Z,-1.70
2023-02-16T01:15:59.591Z,-1.70
2023-02-16T01:18:29.184Z,-1.70
2023-02-16T01:20:55.832Z,-1.70
2023-02-16T01:23:22.527Z,-1.70
2023-02-16T01:25:49.203Z,-1.70
2023-02-16T01:28:21.503Z,-1.70
2023-02-16T01:30:49.086Z,-1.70
2023-02-16T01:33:15.871Z,-1.70
2023-02-16T01:35:42.988Z,-1.70
2023-02-16T01:38:20.856Z,-1.70
2023-02-16T01:41:02.966Z,-1.80
2023-02-16T01:43:46.594Z,-1.70
2023-02-16T01:46:43.108Z,-1.90
2023-02-16T01:49:14.678Z,-1.80
2023-02-16T01:52:04.724Z,-1.90
2023-02-16T01:54:44.205Z,-2.00
2023-02-16T01:57:23.120Z,-2.00
2023-02-16T01:59:49.986Z,-2.00
2023-02-16T02:02:26.684Z,-2.00
2023-02-16T02:05:25.656Z,-2.10
2023-02-16T02:08:26.543Z,-2.10
2023-02-16T02:11:09.581Z,-2.20
2023-02-16T02:13:51.014Z,-2.10
2023-02-16T02:16:21.098Z,-2.10
2023-02-16T02:18:48.687Z,-2.10
2023-02-16T02:22:03.336Z,-2.10
2023-02-16T02:25:05.053Z,-2.10
2023-02-16T02:27:40.794Z,-2.10
2023-02-16T02:30:38.468Z,-2.20
2023-02-16T02:33:25.882Z,-2.20
2023-02-16T02:36:28.684Z,-2.20
2023-02-16T02:39:21.111Z,-2.30
2023-02-16T02:42:06.549Z,-2.20
2023-02-16T02:44:52.352Z,-2.20
2023-02-16T02:47:19.054Z,-2.30
2023-02-16T02:49:53.138Z,-2.30
2023-02-16T02:52:22.223Z,-2.30
2023-02-16T02:55:09.146Z,-2.30
2023-02-16T02:58:00.195Z,-2.30
2023-02-16T03:00:51.531Z,-2.30
2023-02-16T03:03:23.948Z,-2.30
2023-02-16T03:05:56.809Z,-2.30
2023-02-16T03:08:27.375Z,-2.30
2023-02-16T03:11:28.223Z,-2.30
2023-02-16T03:13:59.724Z,-2.20
2023-02-16T03:16:31.662Z,-2.30
2023-02-16T03:19:17.480Z,-2.30
2023-02-16T03:22:03.295Z,-2.30
2023-02-16T03:24:51.469Z,-2.20
2023-02-16T03:27:43.128Z,-2.20
2023-02-16T03:30:11.721Z,-2.30
2023-02-16T03:32:39.308Z,-2.40
2023-02-16T03:35:06.909Z,-2.40
2023-02-16T03:37:33.996Z,-2.50
2023-02-16T03:40:19.151Z,-2.60
2023-02-16T03:42:52.328Z,-2.50
2023-02-16T03:45:20.245Z,-2.50
2023-02-16T03:47:47.174Z,-2.40
2023-02-16T03:50:14.248Z,-2.50
2023-02-16T03:52:40.917Z,-2.40
2023-02-16T03:55:07.866Z,-2.40
2023-02-16T03:57:34.507Z,-2.40
2023-02-16T04:00:01.191Z,-2.30
2023-02-16T04:02:28.701Z,-2.30
2023-02-16T04:04:55.485Z,-2.30
2023-02-16T04:07:22.136Z,-2.30
2023-02-16T04:09:48.875Z,-2.30
2023-02-16T04:12:34.270Z,-2.20
2023-02-16T04:15:00.942Z,-2.20
2023-02-16T04:17:27.619Z,-2.30
2023-02-16T04:19:54.271Z,-2.30
2023-02-16T04:22:20.964Z,-2.40
2023-02-16T04:24:47.607Z,-2.30
2023-02-16T04:27:14.274Z,-2.30
2023-02-16T04:29:40.922Z,-2.40
2023-02-16T04:32:07.700Z,-2.40
2023-02-16T04:34:35.898Z,-2.40
2023-02-16T04:37:02.935Z,-2.20
2023-02-16T04:39:29.586Z,-2.20
2023-02-16T04:41:56.220Z,-2.20
2023-02-16T04:44:22.956Z,-2.10
2023-02-16T04:46:49.756Z,-2.20
2023-02-16T04:49:16.715Z,-2.20
2023-02-16T04:51:44.687Z,-2.10
2023-02-16T04:54:11.437Z,-2.10
2023-02-16T04:56:38.111Z,-2.10
2023-02-16T04:59:05.132Z,-2.00
2023-02-16T05:01:31.904Z,-2.00
2023-02-16T05:03:58.642Z,-2.00
2023-02-16T05:06:25.355Z,-2.10
2023-02-16T05:08:52.340Z,-2.10
2023-02-16T05:11:37.593Z,-2.10
2023-02-16T05:14:23.061Z,-2.10
2023-02-16T05:16:49.843Z,-2.10
2023-02-16T05:19:16.625Z,-2.00
2023-02-16T05:21:45.450Z,-2.00
2023-02-16T05:24:12.326Z,-2.00
2023-02-16T05:26:39.867Z,-2.00
2023-02-16T05:29:06.724Z,-1.90
2023-02-16T05:31:33.858Z,-1.90
2023-02-16T05:34:00.709Z,-2.00
2023-02-16T05:36:27.487Z,-2.00
2023-02-16T05:38:54.274Z,-2.00
2023-02-16T05:41:23.828Z,-2.10
2023-02-16T05:43:59.532Z,-2.00
2023-02-16T05:46:27.706Z,-2.00
2023-02-16T05:48:54.805Z,-2.00
2023-02-16T05:51:22.120Z,-2.00
2023-02-16T05:53:48.894Z,-2.00
2023-02-16T05:56:16.795Z,-2.00
2023-02-16T05:58:43.580Z,-2.00
2023-02-16T06:01:10.843Z,-2.00
2023-02-16T06:03:37.585Z,-2.20
2023-02-16T06:06:07.410Z,-2.10
2023-02-16T06:08:34.722Z,-2.00
2023-02-16T06:11:02.134Z,-2.00
2023-02-16T06:13:29.208Z,-1.90
2023-02-16T06:15:56.888Z,-1.80
2023-02-16T06:18:24.593Z,-1.80
2023-02-16T06:20:51.648Z,-1.80
2023-02-16T06:23:18.650Z,-1.80
2023-02-16T06:25:49.099Z,-1.80
2023-02-16T06:28:15.761Z,-1.80
2023-02-16T06:30:42.676Z,-1.80
2023-02-16T06:33:09.482Z,-1.70
2023-02-16T06:35:36.124Z,-1.60
2023-02-16T06:38:02.775Z,-1.60
2023-02-16T06:40:29.539Z,-1.50
2023-02-16T06:42:56.263Z,-1.40
2023-02-16T06:45:22.924Z,-1.50
2023-02-16T06:47:49.602Z,-1.40
2023-02-16T06:50:17.709Z,-1.40
2023-02-16T06:52:44.512Z,-1.30
2023-02-16T06:55:11.453Z,-1.30
2023-02-16T06:57:38.123Z,-1.20
2023-02-16T07:00:07.450Z,-1.10
2023-02-16T07:02:35.624Z,-1.10
2023-02-16T07:05:03.225Z,-1.10
2023-02-16T07:07:31.076Z,-1.00
2023-02-16T07:09:58.213Z,-1.00
2023-02-16T07:12:25.064Z,-0.90
2023-02-16T07:14:51.715Z,-0.90
2023-02-16T07:17:18.397Z,-0.80
2023-02-16T07:19:45.119Z,-0.70
2023-02-16T07:22:11.802Z,-0.80
2023-02-16T07:24:38.582Z,-0.70
2023-02-16T07:27:05.614Z,-0.60
2023-02-16T07:29:32.289Z,-0.50
2023-02-16T07:31:59.065Z,-0.50
2023-02-16T07:34:25.846Z,-0.50
2023-02-16T07:36:52.524Z,-0.40
2023-02-16T07:39:19.617Z,-0.20
2023-02-16T07:41:46.325Z,-0.20
2023-02-16T07:44:17.682Z,-0.10
2023-02-16T07:46:44.315Z,0.00
2023-02-16T07:49:10.960Z,0.00
2023-02-16T07:51:37.644Z,0.10
2023-02-16T07:54:04.365Z,0.30
2023-02-16T07:56:33.178Z,0.50
2023-02-16T07:59:01.627Z,0.80
2023-02-16T08:01:29.882Z,0.90
2023-02-16T08:03:57.038Z,1.10
2023-02-16T08:06:24.216Z,1.40
2023-02-16T08:08:51.032Z,1.60
2023-02-16T08:11:20.389Z,1.80
2023-02-16T08:13:47.756Z,1.90
2023-02-16T08:16:18.052Z,2.10
2023-02-16T08:18:45.230Z,2.40
2023-02-16T08:21:23.492Z,2.60
2023-02-16T08:23:58.800Z,2.90
2023-02-16T08:26:28.835Z,3.10
2023-02-16T08:28:57.815Z,3.20
2023-02-16T08:31:31.069Z,3.40
2023-02-16T08:34:00.346Z,3.60
2023-02-16T08:36:34.981Z,3.80
2023-02-16T08:39:04.907Z,4.00
2023-02-16T08:41:33.823Z,4.20
2023-02-16T08:44:02.254Z,4.40
2023-02-16T08:46:30.154Z,4.70
2023-02-16T08:48:59.642Z,5.00
2023-02-16T08:51:28.807Z,5.30
2023-02-16T08:53:57.639Z,5.60
2023-02-16T08:56:24.342Z,6.10
2023-02-16T08:58:51.027Z,6.30
2023-02-16T09:01:18.240Z,6.50
2023-02-16T09:03:46.166Z,6.60
2023-02-16T09:06:15.718Z,6.80
2023-02-16T09:08:42.440Z,6.80
2023-02-16T09:11:13.236Z,6.90
2023-02-16T09:13:41.067Z,6.80
2023-02-16T09:16:11.513Z,6.90
2023-02-16T09:18:39.318Z,7.00
2023-02-16T09:21:11.990Z,7.00
2023-02-16T09:23:39.867Z,7.10
2023-02-16T09:26:07.541Z,7.10
2023-02-16T09:28:38.466Z,7.30
2023-02-16T09:31:20.307Z,7.40
2023-02-16T09:33:47.091Z,7.40
2023-02-16T09:36:13.932Z,7.50
2023-02-16T09:38:41.092Z,7.60
2023-02-16T09:41:40.646Z,7.70
2023-02-16T09:44:13.181Z,7.80
2023-02-16T09:46:42.003Z,8.10
2023-02-16T09:49:35.792Z,8.20
2023-02-16T09:52:26.161Z,8.10
2023-02-16T09:54:55.905Z,8.10
2023-02-16T09:57:31.541Z,8.20
2023-02-16T10:00:06.336Z,8.20
2023-02-16T10:02:42.061Z,8.30
2023-02-16T10:05:20.287Z,8.40
2023-02-16T10:08:01.825Z,8.60
2023-02-16T10:10:40.434Z,8.80
2023-02-16T10:13:15.419Z,8.80
2023-02-16T10:15:45.356Z,9.00
2023-02-16T10:18:40.706Z,9.00
2023-02-16T10:21:15.755Z,9.00
2023-02-16T10:23:52.390Z,8.80
2023-02-16T10:26:28.192Z,8.60
2023-02-16T10:29:03.527Z,8.50
2023-02-16T10:31:43.621Z,8.60
2023-02-16T10:34:38.584Z,8.50
2023-02-16T10:37:42.913Z,8.50
2023-02-16T10:40:12.766Z,8.40
2023-02-16T10:42:46.206Z,8.40
2023-02-16T10:45:27.163Z,8.50
2023-02-16T10:47:54.371Z,8.60
2023-02-16T10:50:27.182Z,8.40
2023-02-16T10:52:59.364Z,8.50
2023-02-16T10:55:26.257Z,8.70
2023-02-16T10:57:59.345Z,9.00
2023-02-16T11:00:48.330Z,9.10
2023-02-16T11:03:15.536Z,9.20
2023-02-16T11:05:42.923Z,9.30
2023-02-16T11:08:14.066Z,9.30
2023-02-16T11:10:43.170Z,9.50
2023-02-16T11:13:32.426Z,9.60
2023-02-16T11:16:13.681Z,9.50
2023-02-16T11:18:43.404Z,9.40
2023-02-16T11:21:12.237Z,9.50
2023-02-16T11:23:43.815Z,9.50
2023-02-16T11:26:10.498Z,9.60
2023-02-16T11:28:43.998Z,9.70
2023-02-16T11:31:28.364Z,9.80
2023-02-16T11:34:06.140Z,9.80
2023-02-16T11:36:37.992Z,9.80
2023-02-16T11:39:14.034Z,9.90
2023-02-16T11:41:51.005Z,10.00
2023-02-16T11:44:41.266Z,10.10
2023-02-16T11:47:27.369Z,10.20
2023-02-16T11:50:25.732Z,10.20
2023-02-16T11:53:09.387Z,10.20
2023-02-16T11:55:40.423Z,10.20
2023-02-16T11:58:28.044Z,10.20
2023-02-16T12:01:04.417Z,10.40
2023-02-16T12:03:32.594Z,10.50
2023-02-16T12:06:20.647Z,10.60
2023-02-16T12:08:59.722Z,10.50
2023-02-16T12:11:29.962Z,10.70
2023-02-16T12:14:30.545Z,10.80
2023-02-16T12:17:46.751Z,10.80
2023-02-16T12:20:25.540Z,11.00
2023-02-16T12:23:02.611Z,11.00
2023-02-16T12:25:38.891Z,11.10
2023-02-16T12:28:15.873Z,11.10
2023-02-16T12:31:04.400Z,10.90
2023-02-16T12:33:42.423Z,11.00
2023-02-16T12:36:28.321Z,11.00
2023-02-16T12:39:26.292Z,10.90
2023-02-16T12:42:32.525Z,11.00
2023-02-16T12:45:03.171Z,11.10
2023-02-16T12:47:39.858Z,10.90
2023-02-16T12:50:18.617Z,11.00
2023-02-16T12:52:59.880Z,11.00
2023-02-16T12:55:45.778Z,11.20
2023-02-16T12:58:28.632Z,11.20
2023-02-16T13:01:01.737Z,11.40
2023-02-16T13:03:39.301Z,11.50
2023-02-16T13:06:30.576Z,11.50
2023-02-16T13:09:18.276Z,11.60
2023-02-16T13:12:01.549Z,11.60
2023-02-16T13:14:33.732Z,11.50
2023-02-16T13:17:06.969Z,11.40
2023-02-16T13:19:33.686Z,11.40
2023-02-16T13:22:23.245Z,11.20
2023-02-16T13:24:55.975Z,11.10
2023-02-16T13:27:34.535Z,10.90
2023-02-16T13:30:22.456Z,11.20
2023-02-16T13:33:38.529Z,11.40
2023-02-16T13:36:27.380Z,11.60
2023-02-16T13:39:30.680Z,11.70
2023-02-16T13:42:05.247Z,12.00
2023-02-16T13:44:43.992Z,12.10
2023-02-16T13:47:16.605Z,12.00
2023-02-16T13:49:43.859Z,11.90
2023-02-16T13:52:28.747Z,11.50
2023-02-16T13:54:55.924Z,11.70
2023-02-16T13:57:50.478Z,11.60
2023-02-16T14:00:29.339Z,11.70
2023-02-16T14:03:21.018Z,11.90
2023-02-16T14:05:52.826Z,12.30
2023-02-16T14:08:31.230Z,12.60
2023-02-16T14:11:01.574Z,12.80
2023-02-16T14:13:37.509Z,13.60
2023-02-16T14:16:09.084Z,14.50
2023-02-16T14:19:01.863Z,15.50
2023-02-16T14:21:44.585Z,16.40
2023-02-16T14:24:26.916Z,16.30
2023-02-16T14:26:59.122Z,16.30
2023-02-16T14:29:38.182Z,16.40
2023-02-16T14:32:29.540Z,15.90
2023-02-16T14:35:05.425Z,15.50
2023-02-16T14:37:40.701Z,15.80
2023-02-16T14:40:15.384Z,16.40
2023-02-16T14:42:53.248Z,16.10
2023-02-16T14:45:41.804Z,15.20
2023-02-16T14:48:29.244Z,14.30
2023-02-16T14:51:27.761Z,14.70
2023-02-16T14:54:37.606Z,15.20
2023-02-16T14:57:42.306Z,15.60
2023-02-16T15:00:30.678Z,14.60
2023-02-16T15:03:18.056Z,13.60
2023-02-16T15:05:57.863Z,12.50
2023-02-16T15:08:35.010Z,11.80
2023-02-16T15:11:13.666Z,11.80
2023-02-16T15:13:40.679Z,11.40
2023-02-16T15:16:13.732Z,10.90
2023-02-16T15:18:44.661Z,10.70
2023-02-16T15:21:18.826Z,10.60
2023-02-16T15:23:51.133Z,10.70
2023-02-16T15:26:20.414Z,10.90
2023-02-16T15:28:57.040Z,10.90
2023-02-16T15:31:36.894Z,10.60
2023-02-16T15:34:07.357Z,10.90
2023-02-16T15:36:43.380Z,11.70
2023-02-16T15:39:42.588Z,12.30
2023-02-16T15:42:19.775Z,12.40
2023-02-16T15:44:47.662Z,12.40
2023-02-16T15:47:16.520Z,12.30
2023-02-16T15:49:43.864Z,11.50
2023-02-16T15:52:27.043Z,10.90
2023-02-16T15:54:54.532Z,10.20
2023-02-16T15:57:38.532Z,9.90
2023-02-16T16:00:20.783Z,9.80
2023-02-16T16:02:51.112Z,9.70
2023-02-16T16:05:27.409Z,9.60
2023-02-16T16:07:55.800Z,9.50
2023-02-16T16:10:30.598Z,9.50
2023-02-16T16:13:11.480Z,9.30
2023-02-16T16:15:44.883Z,9.10
2023-02-16T16:18:37.324Z,9.10
2023-02-16T16:21:12.272Z,9.00
2023-02-16T16:23:39.062Z,9.00
2023-02-16T16:26:20.313Z,8.90
2023-02-16T16:28:47.322Z,8.80
2023-02-16T16:31:23.216Z,8.80
2023-02-16T16:34:02.405Z,8.80
2023-02-16T16:36:37.310Z,8.70
2023-02-16T16:39:22.303Z,8.60
2023-02-16T16:42:01.216Z,8.50
2023-02-16T16:44:34.916Z,8.40
2023-02-16T16:47:33.532Z,8.10
2023-02-16T16:50:14.536Z,7.90
2023-02-16T16:52:49.845Z,7.90
2023-02-16T16:55:27.614Z,7.90
2023-02-16T16:58:04.834Z,7.80
2023-02-16T17:00:38.409Z,7.80
2023-02-16T17:03:07.845Z,7.80
2023-02-16T17:05:38.147Z,7.60
2023-02-16T17:08:04.898Z,7.60
2023-02-16T17:10:31.713Z,7.70
2023-02-16T17:12:59.796Z,7.70
2023-02-16T17:15:38.311Z,7.60
2023-02-16T17:18:06.526Z,7.70
2023-02-16T17:20:33.461Z,7.70
2023-02-16T17:23:04.515Z,7.70
2023-02-16T17:25:33.824Z,7.60
2023-02-16T17:28:01.257Z,7.70
2023-02-16T17:30:28.051Z,7.60
2023-02-16T17:32:54.740Z,7.60
2023-02-16T17:35:21.733Z,7.50
2023-02-16T17:37:48.520Z,7.50
2023-02-16T17:40:19.452Z,7.50
2023-02-16T17:42:50.085Z,7.40
2023-02-16T17:45:20.013Z,7.40
2023-02-16T17:47:49.303Z,7.30
2023-02-16T17:50:16.759Z,7.30
2023-02-16T17:52:45.046Z,7.30
2023-02-16T17:55:13.216Z,7.30
2023-02-16T17:57:39.957Z,7.30
2023-02-16T18:00:08.318Z,7.30
2023-02-16T18:02:35.054Z,7.30
2023-02-16T18:05:01.732Z,7.30
2023-02-16T18:07:28.426Z,7.30
2023-02-16T18:09:55.371Z,7.30
2023-02-16T18:12:22.094Z,7.40
2023-02-16T18:14:48.759Z,7.40
2023-02-16T18:17:15.405Z,7.40
2023-02-16T18:19:42.135Z,7.40
2023-02-16T18:22:08.939Z,7.50
2023-02-16T18:24:35.649Z,7.60
2023-02-16T18:27:02.370Z,7.60
2023-02-16T18:29:29.053Z,7.60
2023-02-16T18:31:56.980Z,7.60
2023-02-16T18:34:25.999Z,7.60
2023-02-16T18:36:52.943Z,7.70
2023-02-16T18:39:19.637Z,7.60
2023-02-16T18:41:46.327Z,7.60
2023-02-16T18:44:13.092Z,7.60
2023-02-16T18:46:39.848Z,7.70
2023-02-16T18:49:06.501Z,7.60
2023-02-16T18:51:33.556Z,7.60
2023-02-16T18:54:00.300Z,7.50
2023-02-16T18:56:27.646Z,7.60
2023-02-16T18:58:54.635Z,7.60
2023-02-16T19:01:32.561Z,7.50
2023-02-16T19:04:01.099Z,7.50
2023-02-16T19:06:28.598Z,7.40
2023-02-16T19:08:56.306Z,7.40
2023-02-16T19:11:23.039Z,7.40
2023-02-16T19:13:49.720Z,7.40
2023-02-16T19:16:17.675Z,7.40
2023-02-16T19:18:44.515Z,7.40
2023-02-16T19:21:14.010Z,7.40
2023-02-16T19:23:40.940Z,7.40
2023-02-16T19:26:13.077Z,7.40
2023-02-16T19:28:40.333Z,7.40
2023-02-16T19:31:15.255Z,7.40
2023-02-16T19:33:42.006Z,7.40
2023-02-16T19:36:10.355Z,7.40
2023-02-16T19:38:37.610Z,7.30
2023-02-16T19:41:16.644Z,7.20
2023-02-16T19:43:44.078Z,7.20
2023-02-16T19:46:12.093Z,7.20
2023-02-16T19:48:39.923Z,7.30
2023-02-16T19:51:07.889Z,7.30
2023-02-16T19:53:36.242Z,7.30
2023-02-16T19:56:12.619Z,7.30
2023-02-16T19:58:39.544Z,7.20
2023-02-16T20:01:19.928Z,7.20
2023-02-16T20:03:48.043Z,7.20
2023-02-16T20:06:18.685Z,7.30
2023-02-16T20:08:46.383Z,7.30
2023-02-16T20:11:13.746Z,7.30
2023-02-16T20:13:40.443Z,7.30
2023-02-16T20:16:09.201Z,7.30
2023-02-16T20:18:36.683Z,7.30
2023-02-16T20:21:13.457Z,7.30
2023-02-16T20:23:40.318Z,7.20
2023-02-16T20:26:10.036Z,7.20
2023-02-16T20:28:37.052Z,7.20
2023-02-16T20:31:09.885Z,7.10
2023-02-16T20:33:36.614Z,7.10
2023-02-16T20:36:04.247Z,7.10
2023-02-16T20:38:31.159Z,7.10
2023-02-16T20:40:57.874Z,7.00
2023-02-16T20:43:24.653Z,7.00
2023-02-16T20:45:51.401Z,6.90
2023-02-16T20:48:18.177Z,6.90
2023-02-16T20:50:45.039Z,6.90
2023-02-16T20:53:11.727Z,6.90
2023-02-16T20:55:38.493Z,6.90
2023-02-16T20:58:05.162Z,6.90
2023-02-16T21:00:31.957Z,7.00
2023-02-16T21:02:58.651Z,6.90
2023-02-16T21:05:25.352Z,6.90
2023-02-16T21:07:51.992Z,6.90
2023-02-16T21:10:18.676Z,6.90
2023-02-16T21:12:46.466Z,7.00
2023-02-16T21:15:13.216Z,6.90
2023-02-16T21:17:39.925Z,6.90
2023-02-16T21:20:07.900Z,7.00
2023-02-16T21:22:34.883Z,7.00
2023-02-16T21:25:01.701Z,7.00
2023-02-16T21:27:28.329Z,7.00
2023-02-16T21:29:55.029Z,7.00
2023-02-16T21:32:21.729Z,6.90
2023-02-16T21:34:48.432Z,6.90
2023-02-16T21:37:15.191Z,6.80
2023-02-16T21:40:00.483Z,6.80
2023-02-16T21:42:27.193Z,6.80
2023-02-16T21:45:12.312Z,6.80
2023-02-16T21:47:58.501Z,6.70
2023-02-16T21:50:25.607Z,6.80
2023-02-16T21:52:52.641Z,6.80
2023-02-16T21:55:38.149Z,6.80
2023-02-16T21:58:07.961Z,6.80
2023-02-16T22:00:39.340Z,6.90
2023-02-16T22:03:06.824Z,6.90
2023-02-16T22:05:35.113Z,6.90
2023-02-16T22:08:02.360Z,6.90
2023-02-16T22:10:29.258Z,6.80
2023-02-16T22:12:56.799Z,6.80
2023-02-16T22:15:25.857Z,6.80
2023-02-16T22:17:52.739Z,6.80
2023-02-16T22:20:19.756Z,6.70
2023-02-16T22:22:46.474Z,6.70
2023-02-16T22:25:13.386Z,6.60
2023-02-16T22:27:40.357Z,6.60
2023-02-16T22:30:08.071Z,6.60
2023-02-16T22:32:34.800Z,6.50
2023-02-16T22:35:01.753Z,6.50
2023-02-16T22:37:28.466Z,6.40
2023-02-16T22:39:55.204Z,6.40
2023-02-16T22:42:22.633Z,6.50
2023-02-16T22:44:49.355Z,6.50
2023-02-16T22:47:16.091Z,6.60
2023-02-16T22:49:42.912Z,6.60
2023-02-16T22:52:11.388Z,6.60
2023-02-16T22:54:38.535Z,6.60
2023-02-16T22:57:07.079Z,6.70
2023-02-16T22:59:33.906Z,6.70
2023-02-16T23:02:00.617Z,6.80
2023-02-16T23:04:27.494Z,6.70
2023-02-16T23:06:54.197Z,6.80
2023-02-16T23:09:21.803Z,6.70
2023-02-16T23:11:49.392Z,6.80
2023-02-16T23:14:16.729Z,6.70
2023-02-16T23:16:48.293Z,6.70
2023-02-16T23:19:18.695Z,6.80
2023-02-16T23:21:46.284Z,6.80
2023-02-16T23:24:19.596Z,6.80
2023-02-16T23:26:46.844Z,6.80
2023-02-16T23:29:14.769Z,6.80
2023-02-16T23:31:43.459Z,6.80
2023-02-16T23:34:11.360Z,6.80
2023-02-16T23:36:38.775Z,6.80
2023-02-16T23:39:12.018Z,6.80
2023-02-16T23:41:39.613Z,6.90
2023-02-16T23:44:06.827Z,6.90
2023-02-16T23:46:33.952Z,6.90
2023-02-16T23:49:00.673Z,7.00
2023-02-16T23:51:27.625Z,7.00
2023-02-16T23:53:55.970Z,7.00
2023-02-16T23:56:25.359Z,7.00
2023-02-16T23:58:52.973Z,7.00
